Time;durP1;ratioP1;P1;durP2;ratioP2;P2;SDS_P1;SDS_P2;PMS_P1;PMS_P2;Temp;Humidity;BMP_temperature;BMP_pressure;BME280_temperature;BME280_humidity;BME280_pressure;Samples;Min_cycle;Max_cycle;Signal;HPM_P1;HPM_P2
2023/07/16 00:01:12;;;;;;;9.93;7.43;;;;;;;;;;5059389;28;20436;-70
2023/07/16 00:03:37;;;;;;;9.15;7.72;;;;;;;;;;5056040;28;20040;-71
2023/07/16 00:06:02;;;;;;;7.90;7.10;;;;;;;;;;5061294;28;20440;-71
2023/07/16 00:08:28;;;;;;;7.72;7.05;;;;;;;;;;5056194;28;20351;-71
2023/07/16 00:10:53;;;;;;;8.00;7.20;;;;;;;;;;5056960;28;20032;-72
2023/07/16 00:13:19;;;;;;;11.25;7.43;;;;;;;;;;5059259;28;20174;-70
2023/07/16 00:15:44;;;;;;;8.50;7.43;;;;;;;;;;5058600;28;20028;-71
2023/07/16 00:18:09;;;;;;;7.70;7.00;;;;;;;;;;5055732;28;20043;-71
2023/07/16 00:20:35;;;;;;;8.48;7.47;;;;;;;;;;5058855;28;20177;-71
2023/07/16 00:23:00;;;;;;;9.07;7.63;;;;;;;;;;5058453;28;20016;-73
2023/07/16 00:25:25;;;;;;;8.70;7.80;;;;;;;;;;5048593;28;20040;-70
2023/07/16 00:27:51;;;;;;;8.25;7.45;;;;;;;;;;5060608;28;20464;-71
2023/07/16 00:30:16;;;;;;;7.97;7.28;;;;;;;;;;5057854;28;20418;-71
2023/07/16 00:32:41;;;;;;;9.02;7.97;;;;;;;;;;5058150;28;20460;-70
2023/07/16 00:35:07;;;;;;;8.77;7.35;;;;;;;;;;5057166;28;20036;-71
2023/07/16 00:37:33;;;;;;;8.90;7.78;;;;;;;;;;5058936;28;20035;-70
2023/07/16 00:39:58;;;;;;;8.50;7.47;;;;;;;;;;5059142;28;20020;-70
2023/07/16 00:42:24;;;;;;;10.15;7.90;;;;;;;;;;5057194;28;20111;-70
2023/07/16 00:44:49;;;;;;;7.88;6.97;;;;;;;;;;5055937;28;20097;-70
2023/07/16 00:47:14;;;;;;;12.25;6.90;;;;;;;;;;5056526;28;20039;-71
2023/07/16 00:49:40;;;;;;;8.55;7.57;;;;;;;;;;5057114;28;20456;-70
2023/07/16 00:52:07;;;;;;;8.45;7.55;;;;;;;;;;5058475;28;20029;-71
2023/07/16 00:54:33;;;;;;;8.50;7.30;;;;;;;;;;5057643;28;20020;-71
2023/07/16 00:56:58;;;;;;;8.07;7.38;;;;;;;;;;5058146;28;20274;-70
2023/07/16 00:59:24;;;;;;;8.38;7.38;;;;;;;;;;5057637;28;20062;-72
2023/07/16 01:01:49;;;;;;;8.45;7.65;;;;;;;;;;5059912;28;20043;-72
2023/07/16 01:04:15;;;;;;;9.00;7.65;;;;;;;;;;5059406;28;20052;-71
2023/07/16 01:06:41;;;;;;;9.07;7.85;;;;;;;;;;5057525;28;20432;-71
2023/07/16 01:09:08;;;;;;;8.93;7.75;;;;;;;;;;5056948;28;20083;-71
2023/07/16 01:11:35;;;;;;;11.48;7.78;;;;;;;;;;5049443;28;20471;-70
2023/07/16 01:14:01;;;;;;;9.18;8.25;;;;;;;;;;5058031;28;20064;-71
2023/07/16 01:16:27;;;;;;;9.55;7.40;;;;;;;;;;5059240;28;20028;-71
2023/07/16 01:18:52;;;;;;;9.57;8.13;;;;;;;;;;5051297;28;20085;-72
2023/07/16 01:21:19;;;;;;;8.85;7.95;;;;;;;;;;5057887;28;20025;-71
2023/07/16 01:23:50;;;;;;;8.50;7.78;;;;;;;;;;5056376;28;20112;-71
2023/07/16 01:26:34;;;;;;;8.52;7.65;;;;;;;;;;5058169;28;20352;-72
2023/07/16 01:29:14;;;;;;;7.75;7.05;;;;;;;;;;5056958;28;20377;-72
2023/07/16 01:31:40;;;;;;;9.23;7.90;;;;;;;;;;5058483;28;20333;-71
2023/07/16 01:34:06;;;;;;;7.68;7.07;;;;;;;;;;5058498;28;20035;-71
2023/07/16 01:36:32;;;;;;;9.10;7.85;;;;;;;;;;5059278;28;20055;-71
2023/07/16 01:38:57;;;;;;;8.82;8.07;;;;;;;;;;5055055;28;20029;-72
2023/07/16 01:41:24;;;;;;;10.18;8.10;;;;;;;;;;5055224;28;20028;-71
2023/07/16 01:43:50;;;;;;;9.00;8.10;;;;;;;;;;5056758;28;20464;-71
2023/07/16 01:46:15;;;;;;;9.88;8.57;;;;;;;;;;5056572;28;20024;-72
2023/07/16 01:48:40;;;;;;;9.20;8.27;;;;;;;;;;5057658;28;20328;-72
2023/07/16 01:51:06;;;;;;;14.05;8.00;;;;;;;;;;5058513;28;20020;-71
2023/07/16 01:53:31;;;;;;;9.73;7.43;;;;;;;;;;5057501;28;20846;-72
2023/07/16 01:55:57;;;;;;;8.90;8.00;;;;;;;;;;5056791;28;20038;-72
2023/07/16 01:58:22;;;;;;;8.77;7.97;;;;;;;;;;5058140;28;20032;-71
2023/07/16 02:00:49;;;;;;;9.05;8.25;;;;;;;;;;5057751;28;20044;-72
2023/07/16 02:03:14;;;;;;;8.02;7.22;;;;;;;;;;5057671;28;20032;-71
2023/07/16 02:05:40;;;;;;;12.23;7.88;;;;;;;;;;5055256;28;20025;-71
2023/07/16 02:08:06;;;;;;;8.00;7.20;;;;;;;;;;5055154;28;20132;-71
2023/07/16 02:10:31;;;;;;;9.18;7.50;;;;;;;;;;5057089;28;20078;-72
2023/07/16 02:12:56;;;;;;;10.52;7.90;;;;;;;;;;5051073;28;20028;-71
2023/07/16 02:15:22;;;;;;;9.05;7.70;;;;;;;;;;5055633;28;20047;-71
2023/07/16 02:17:47;;;;;;;8.73;7.88;;;;;;;;;;5049758;28;20535;-72
2023/07/16 02:20:13;;;;;;;8.57;7.88;;;;;;;;;;5058896;28;20017;-71
2023/07/16 02:22:38;;;;;;;9.93;8.25;;;;;;;;;;5054456;28;20066;-71
2023/07/16 02:25:04;;;;;;;10.23;7.88;;;;;;;;;;5054249;28;20348;-71
2023/07/16 02:27:29;;;;;;;8.55;7.75;;;;;;;;;;5058888;28;20027;-71
2023/07/16 02:29:55;;;;;;;12.13;7.90;;;;;;;;;;5058623;28;20017;-71
2023/07/16 02:32:20;;;;;;;8.95;8.07;;;;;;;;;;5057942;28;20105;-71
2023/07/16 02:34:45;;;;;;;8.68;7.88;;;;;;;;;;5055408;28;20037;-70
2023/07/16 02:37:11;;;;;;;10.77;8.27;;;;;;;;;;5057207;28;20359;-71
2023/07/16 02:39:36;;;;;;;8.95;8.10;;;;;;;;;;5057551;28;20134;-71
2023/07/16 02:42:01;;;;;;;8.77;7.95;;;;;;;;;;5057974;28;20020;-71
2023/07/16 02:44:27;;;;;;;7.82;7.10;;;;;;;;;;5057237;28;20394;-70
2023/07/16 02:46:52;;;;;;;9.48;8.52;;;;;;;;;;5054287;28;21028;-71
2023/07/16 02:49:17;;;;;;;9.52;7.57;;;;;;;;;;5057395;28;20028;-70
2023/07/16 02:51:43;;;;;;;10.32;8.13;;;;;;;;;;5060503;28;20071;-70
2023/07/16 02:54:08;;;;;;;8.70;7.82;;;;;;;;;;5059042;28;20033;-72
2023/07/16 02:56:34;;;;;;;8.38;7.65;;;;;;;;;;5060853;28;20032;-72
2023/07/16 02:58:59;;;;;;;8.60;7.80;;;;;;;;;;5059658;28;20029;-73
2023/07/16 03:01:25;;;;;;;10.13;8.35;;;;;;;;;;5061087;28;20067;-72
2023/07/16 03:03:50;;;;;;;8.73;7.93;;;;;;;;;;5061728;28;20217;-72
2023/07/16 03:06:15;;;;;;;10.43;7.75;;;;;;;;;;5060761;28;20131;-71
2023/07/16 03:08:41;;;;;;;9.20;8.40;;;;;;;;;;5060096;28;20140;-71
2023/07/16 03:11:06;;;;;;;9.45;8.63;;;;;;;;;;5061140;28;20031;-71
2023/07/16 03:13:32;;;;;;;9.18;8.27;;;;;;;;;;5058192;28;20029;-72
2023/07/16 03:15:57;;;;;;;12.77;8.07;;;;;;;;;;5051523;28;20020;-72
2023/07/16 03:18:27;;;;;;;9.05;8.13;;;;;;;;;;5057674;28;20039;-72
2023/07/16 03:20:52;;;;;;;10.13;7.72;;;;;;;;;;5059957;28;20025;-72
2023/07/16 03:23:18;;;;;;;9.80;7.90;;;;;;;;;;5058614;28;20029;-71
2023/07/16 03:25:44;;;;;;;8.88;7.90;;;;;;;;;;5052220;28;20017;-72
2023/07/16 03:28:09;;;;;;;9.38;8.32;;;;;;;;;;5055230;28;20064;-72
2023/07/16 03:30:37;;;;;;;9.43;8.60;;;;;;;;;;5058677;28;20056;-71
2023/07/16 03:33:02;;;;;;;9.52;8.63;;;;;;;;;;5059724;28;20020;-72
2023/07/16 03:35:27;;;;;;;8.93;8.00;;;;;;;;;;5060493;28;20059;-72
2023/07/16 03:37:53;;;;;;;11.15;8.10;;;;;;;;;;5057884;28;20031;-72
2023/07/16 03:40:21;;;;;;;9.73;8.20;;;;;;;;;;5056203;28;20118;-71
2023/07/16 03:42:47;;;;;;;9.90;7.85;;;;;;;;;;5052907;28;20022;-71
2023/07/16 03:45:13;;;;;;;9.52;8.60;;;;;;;;;;5054261;28;20363;-71
2023/07/16 03:47:39;;;;;;;12.45;7.82;;;;;;;;;;5048891;28;20127;-72
2023/07/16 03:50:04;;;;;;;9.15;8.23;;;;;;;;;;5059164;28;20127;-72
2023/07/16 03:52:30;;;;;;;9.18;8.35;;;;;;;;;;5072786;28;20448;-72
2023/07/16 03:54:55;;;;;;;9.85;8.80;;;;;;;;;;5055293;28;20105;-70
2023/07/16 03:57:21;;;;;;;9.30;8.40;;;;;;;;;;5058075;28;20462;-70
2023/07/16 03:59:46;;;;;;;9.82;8.32;;;;;;;;;;5059086;28;20017;-70
2023/07/16 04:02:11;;;;;;;8.82;7.90;;;;;;;;;;5056369;28;20020;-70
2023/07/16 04:04:37;;;;;;;10.13;8.63;;;;;;;;;;5061724;28;20028;-71
2023/07/16 04:07:02;;;;;;;9.80;8.05;;;;;;;;;;5058827;28;20029;-72
2023/07/16 04:09:27;;;;;;;9.88;8.93;;;;;;;;;;5057350;28;20048;-71
2023/07/16 04:11:53;;;;;;;8.85;7.63;;;;;;;;;;5058860;28;20035;-72
2023/07/16 04:14:18;;;;;;;9.55;8.48;;;;;;;;;;5056085;28;20071;-71
2023/07/16 04:16:43;;;;;;;8.55;7.75;;;;;;;;;;5057721;28;20032;-71
2023/07/16 04:19:09;;;;;;;8.15;7.35;;;;;;;;;;5056997;28;20020;-70
2023/07/16 04:21:35;;;;;;;10.40;8.55;;;;;;;;;;5057522;28;20103;-71
2023/07/16 04:24:00;;;;;;;12.50;8.38;;;;;;;;;;5057381;28;20029;-71
2023/07/16 04:26:25;;;;;;;9.13;8.30;;;;;;;;;;5057822;28;20032;-71
2023/07/16 04:28:51;;;;;;;10.65;8.52;;;;;;;;;;5060365;28;20016;-71
2023/07/16 04:31:16;;;;;;;9.52;8.70;;;;;;;;;;5058207;28;20024;-71
2023/07/16 04:33:41;;;;;;;10.07;8.75;;;;;;;;;;5059554;28;20041;-71
2023/07/16 04:36:07;;;;;;;9.23;8.43;;;;;;;;;;5059536;28;20020;-70
2023/07/16 04:38:32;;;;;;;9.48;8.50;;;;;;;;;;5055925;28;20028;-69
2023/07/16 04:40:57;;;;;;;10.02;9.13;;;;;;;;;;5057907;28;20063;-70
2023/07/16 04:43:23;;;;;;;10.25;9.32;;;;;;;;;;5055276;28;20440;-71
2023/07/16 04:45:48;;;;;;;10.38;9.07;;;;;;;;;;5048100;28;20416;-70
2023/07/16 04:48:14;;;;;;;9.88;8.90;;;;;;;;;;5047892;28;20048;-70
2023/07/16 04:50:39;;;;;;;11.43;9.32;;;;;;;;;;5053384;28;20024;-69
2023/07/16 04:53:04;;;;;;;9.32;8.52;;;;;;;;;;5058154;28;20028;-71
2023/07/16 04:55:34;;;;;;;10.52;9.48;;;;;;;;;;5056682;28;20060;-70
2023/07/16 04:58:00;;;;;;;10.52;9.43;;;;;;;;;;5056582;28;20105;-69
2023/07/16 05:00:25;;;;;;;10.25;9.38;;;;;;;;;;5049974;28;20577;-72
2023/07/16 05:02:50;;;;;;;10.20;9.20;;;;;;;;;;5051094;28;20125;-70
2023/07/16 05:05:15;;;;;;;12.85;9.25;;;;;;;;;;5050658;28;20028;-70
2023/07/16 05:07:41;;;;;;;10.38;9.48;;;;;;;;;;5048654;28;20052;-71
2023/07/16 05:10:06;;;;;;;11.63;9.07;;;;;;;;;;5048650;28;20021;-71
2023/07/16 05:12:32;;;;;;;9.38;8.48;;;;;;;;;;5051240;28;20021;-71
2023/07/16 05:14:57;;;;;;;10.27;8.88;;;;;;;;;;5053183;28;20051;-70
2023/07/16 05:17:23;;;;;;;9.48;8.68;;;;;;;;;;5058298;28;20127;-71
2023/07/16 05:19:48;;;;;;;9.50;8.55;;;;;;;;;;5058755;28;20082;-70
2023/07/16 05:22:13;;;;;;;9.90;8.98;;;;;;;;;;5056099;28;20342;-70
2023/07/16 05:24:39;;;;;;;9.57;8.68;;;;;;;;;;5057672;28;20455;-74
2023/07/16 05:27:04;;;;;;;9.60;8.77;;;;;;;;;;5057264;28;20024;-72
2023/07/16 05:29:30;;;;;;;9.38;8.45;;;;;;;;;;5045612;28;20025;-74
2023/07/16 05:31:55;;;;;;;9.73;8.93;;;;;;;;;;5047335;28;20571;-71
2023/07/16 05:34:20;;;;;;;10.88;9.15;;;;;;;;;;5048064;28;20097;-71
2023/07/16 05:36:46;;;;;;;10.30;9.27;;;;;;;;;;5047748;28;20043;-71
2023/07/16 05:39:14;;;;;;;9.73;8.38;;;;;;;;;;5048733;28;20029;-71
2023/07/16 05:41:39;;;;;;;11.48;9.70;;;;;;;;;;5046443;28;20024;-71
2023/07/16 05:44:05;;;;;;;11.73;8.05;;;;;;;;;;5048052;28;20033;-71
2023/07/16 05:46:30;;;;;;;9.35;8.55;;;;;;;;;;5058773;28;21081;-71
2023/07/16 05:48:55;;;;;;;10.50;8.68;;;;;;;;;;5053599;28;20024;-71
2023/07/16 05:51:21;;;;;;;9.57;8.57;;;;;;;;;;5057229;28;20025;-70
2023/07/16 05:53:47;;;;;;;10.20;8.63;;;;;;;;;;5056264;28;20035;-72
2023/07/16 05:56:12;;;;;;;9.63;8.68;;;;;;;;;;5048393;28;20032;-71
2023/07/16 05:58:39;;;;;;;9.07;8.18;;;;;;;;;;5054040;28;20025;-72
2023/07/16 06:01:04;;;;;;;12.52;8.55;;;;;;;;;;5058240;28;20169;-71
2023/07/16 06:03:29;;;;;;;10.40;8.95;;;;;;;;;;5057697;28;20127;-71
2023/07/16 06:05:55;;;;;;;11.00;8.88;;;;;;;;;;5056248;28;20028;-71
2023/07/16 06:08:20;;;;;;;9.32;8.35;;;;;;;;;;5045225;28;20523;-71
2023/07/16 06:10:46;;;;;;;9.38;8.48;;;;;;;;;;5044784;28;20417;-73
2023/07/16 06:13:11;;;;;;;15.40;9.38;;;;;;;;;;5046280;28;20025;-74
2023/07/16 06:15:36;;;;;;;9.02;8.10;;;;;;;;;;5062551;28;20025;-73
2023/07/16 06:18:02;;;;;;;13.90;9.23;;;;;;;;;;5045404;28;20025;-72
2023/07/16 06:20:28;;;;;;;10.82;9.25;;;;;;;;;;5046075;28;20025;-72
2023/07/16 06:22:54;;;;;;;9.73;8.73;;;;;;;;;;5045113;28;20025;-72
2023/07/16 06:25:19;;;;;;;10.10;9.20;;;;;;;;;;5048383;28;20028;-74
2023/07/16 06:27:44;;;;;;;11.85;9.25;;;;;;;;;;5049448;28;20063;-72
2023/07/16 06:30:10;;;;;;;12.90;8.90;;;;;;;;;;5049185;28;20028;-72
2023/07/16 06:32:35;;;;;;;10.95;9.80;;;;;;;;;;5049889;28;20993;-73
2023/07/16 06:35:00;;;;;;;10.27;9.38;;;;;;;;;;5049086;28;20115;-74
2023/07/16 06:37:26;;;;;;;10.18;9.18;;;;;;;;;;5047025;28;20048;-73
2023/07/16 06:39:51;;;;;;;13.07;10.13;;;;;;;;;;5047675;28;20401;-73
2023/07/16 06:42:17;;;;;;;11.73;9.35;;;;;;;;;;5051322;28;20028;-72
2023/07/16 06:44:42;;;;;;;9.95;9.00;;;;;;;;;;5058435;28;20486;-75
2023/07/16 06:47:08;;;;;;;11.13;9.48;;;;;;;;;;5058529;28;20024;-74
2023/07/16 06:49:33;;;;;;;12.50;10.48;;;;;;;;;;5058805;28;20029;-75
2023/07/16 06:52:00;;;;;;;11.45;10.18;;;;;;;;;;5057320;28;20021;-73
2023/07/16 06:54:25;;;;;;;10.40;9.50;;;;;;;;;;5060569;28;20032;-72
2023/07/16 06:56:51;;;;;;;11.60;9.90;;;;;;;;;;5058472;28;20026;-73
2023/07/16 06:59:16;;;;;;;10.05;9.15;;;;;;;;;;5062615;28;20060;-73
2023/07/16 07:01:41;;;;;;;12.63;9.73;;;;;;;;;;5063046;28;20021;-71
2023/07/16 07:04:07;;;;;;;11.82;10.55;;;;;;;;;;5060823;28;20058;-72
2023/07/16 07:06:32;;;;;;;10.77;9.77;;;;;;;;;;5061339;28;20028;-73
2023/07/16 07:08:58;;;;;;;11.27;9.98;;;;;;;;;;5061016;28;20052;-73
2023/07/16 07:11:23;;;;;;;11.30;9.30;;;;;;;;;;5063302;28;20040;-73
2023/07/16 07:13:50;;;;;;;12.02;9.15;;;;;;;;;;5060647;28;20037;-74
2023/07/16 07:16:15;;;;;;;12.88;9.52;;;;;;;;;;5060316;28;20031;-72
2023/07/16 07:18:41;;;;;;;10.20;9.20;;;;;;;;;;5059272;28;20024;-73
2023/07/16 07:21:06;;;;;;;10.10;9.00;;;;;;;;;;5058817;28;20056;-76
2023/07/16 07:23:31;;;;;;;11.93;8.65;;;;;;;;;;5060104;28;20039;-72
2023/07/16 07:25:57;;;;;;;9.70;8.68;;;;;;;;;;5061981;28;20031;-73
2023/07/16 07:28:22;;;;;;;9.98;8.98;;;;;;;;;;5062293;28;20467;-73
2023/07/16 07:30:47;;;;;;;9.90;8.90;;;;;;;;;;5051648;28;20373;-72
2023/07/16 07:33:13;;;;;;;10.55;8.82;;;;;;;;;;5061903;28;20082;-73
2023/07/16 07:35:39;;;;;;;9.90;8.90;;;;;;;;;;5061428;28;20031;-72
2023/07/16 07:38:04;;;;;;;9.63;8.73;;;;;;;;;;5059560;28;20052;-73
2023/07/16 07:40:29;;;;;;;9.82;8.43;;;;;;;;;;5060695;28;20043;-72
2023/07/16 07:42:55;;;;;;;10.38;8.20;;;;;;;;;;5055767;28;20032;-73
2023/07/16 07:45:20;;;;;;;9.77;8.43;;;;;;;;;;5059731;28;20692;-72
2023/07/16 07:47:45;;;;;;;8.75;7.90;;;;;;;;;;5061071;28;20035;-72
2023/07/16 07:50:11;;;;;;;13.20;8.63;;;;;;;;;;5058665;28;20059;-74
2023/07/16 07:52:36;;;;;;;8.63;7.70;;;;;;;;;;5055984;28;20025;-74
2023/07/16 07:55:02;;;;;;;10.57;8.45;;;;;;;;;;5058466;28;20036;-72
2023/07/16 07:57:27;;;;;;;9.10;8.32;;;;;;;;;;5059863;28;20738;-75
2023/07/16 07:59:57;;;;;;;9.00;7.85;;;;;;;;;;5057576;28;20447;-71
2023/07/16 08:02:23;;;;;;;10.52;7.72;;;;;;;;;;5057929;28;20054;-72
2023/07/16 08:04:50;;;;;;;9.52;8.05;;;;;;;;;;5060789;28;20035;-73
2023/07/16 08:07:16;;;;;;;8.93;8.05;;;;;;;;;;5059948;28;20063;-72
2023/07/16 08:09:41;;;;;;;10.10;7.72;;;;;;;;;;5051465;28;20020;-76
2023/07/16 08:12:06;;;;;;;9.20;7.63;;;;;;;;;;5049196;28;20107;-71
2023/07/16 08:14:32;;;;;;;9.38;8.20;;;;;;;;;;5048784;28;20078;-74
2023/07/16 08:16:57;;;;;;;11.25;8.07;;;;;;;;;;5047846;28;20028;-72
2023/07/16 08:19:23;;;;;;;12.90;8.27;;;;;;;;;;5048250;28;20043;-72
2023/07/16 08:21:48;;;;;;;12.65;8.00;;;;;;;;;;5048407;28;20522;-73
2023/07/16 08:24:14;;;;;;;8.18;6.88;;;;;;;;;;5047682;28;20039;-74
2023/07/16 08:26:39;;;;;;;8.50;7.60;;;;;;;;;;5047580;28;20038;-74
2023/07/16 08:29:04;;;;;;;12.65;8.07;;;;;;;;;;5048035;28;20032;-73
2023/07/16 08:31:30;;;;;;;11.57;8.05;;;;;;;;;;5051999;28;20099;-78
2023/07/16 08:33:57;;;;;;;9.10;8.18;;;;;;;;;;5057183;28;20044;-75
2023/07/16 08:36:22;;;;;;;8.98;8.18;;;;;;;;;;5058830;28;20024;-74
2023/07/16 08:38:47;;;;;;;12.13;8.00;;;;;;;;;;5057862;28;20039;-74
2023/07/16 08:41:14;;;;;;;8.60;7.30;;;;;;;;;;5060847;28;20424;-73
2023/07/16 08:43:40;;;;;;;10.48;7.05;;;;;;;;;;5051462;28;20028;-74
2023/07/16 08:46:05;;;;;;;8.65;7.85;;;;;;;;;;5049065;28;20459;-76
2023/07/16 08:48:30;;;;;;;8.15;7.35;;;;;;;;;;5048093;28;20025;-74
2023/07/16 08:50:58;;;;;;;11.68;8.55;;;;;;;;;;5047745;28;20028;-75
2023/07/16 08:53:24;;;;;;;13.50;7.90;;;;;;;;;;5048680;28;20031;-76
2023/07/16 08:55:49;;;;;;;8.50;7.70;;;;;;;;;;5047593;28;20028;-75
2023/07/16 08:58:15;;;;;;;8.55;7.30;;;;;;;;;;5048238;28;20373;-74
2023/07/16 09:00:47;;;;;;;8.32;7.50;;;;;;;;;;5047458;28;20064;-73
2023/07/16 09:03:14;;;;;;;10.88;7.65;;;;;;;;;;5048687;28;20035;-75
2023/07/16 09:05:39;;;;;;;9.45;8.45;;;;;;;;;;5047646;28;20115;-75
2023/07/16 09:08:04;;;;;;;9.18;7.80;;;;;;;;;;5047512;28;20132;-75
2023/07/16 09:10:30;;;;;;;10.90;7.47;;;;;;;;;;5046420;28;20035;-78
2023/07/16 09:12:57;;;;;;;7.88;7.13;;;;;;;;;;5063689;28;20382;-75
2023/07/16 09:15:22;;;;;;;7.95;7.25;;;;;;;;;;5047047;28;20374;-73
2023/07/16 09:17:48;;;;;;;10.70;7.50;;;;;;;;;;5047034;28;20033;-75
2023/07/16 09:20:17;;;;;;;10.93;8.00;;;;;;;;;;5057213;28;20035;-74
2023/07/16 09:22:42;;;;;;;7.88;6.93;;;;;;;;;;5058074;28;20040;-75
2023/07/16 09:25:08;;;;;;;9.20;7.57;;;;;;;;;;5059588;28;20115;-76
2023/07/16 09:27:33;;;;;;;9.07;7.60;;;;;;;;;;5061356;28;20032;-77
2023/07/16 09:30:02;;;;;;;8.57;7.35;;;;;;;;;;5060946;28;20028;-74
2023/07/16 09:32:34;;;;;;;7.63;6.93;;;;;;;;;;5059282;28;20027;-75
2023/07/16 09:34:59;;;;;;;9.50;7.13;;;;;;;;;;5058279;28;20356;-75
2023/07/16 09:37:25;;;;;;;8.20;7.40;;;;;;;;;;5060821;28;20024;-75
2023/07/16 09:39:51;;;;;;;8.55;7.75;;;;;;;;;;5060732;28;20035;-75
2023/07/16 09:42:17;;;;;;;8.75;7.75;;;;;;;;;;5058158;28;20028;-75
2023/07/16 09:44:44;;;;;;;10.20;7.70;;;;;;;;;;5060454;28;20111;-77
2023/07/16 09:47:09;;;;;;;8.80;7.72;;;;;;;;;;5059647;28;20834;-75
2023/07/16 09:49:34;;;;;;;11.40;8.00;;;;;;;;;;5075515;28;20032;-75
2023/07/16 09:52:01;;;;;;;8.98;7.35;;;;;;;;;;5060929;28;20048;-76
2023/07/16 09:54:30;;;;;;;8.70;7.80;;;;;;;;;;5060561;28;20029;-76
2023/07/16 09:57:00;;;;;;;24.23;8.50;;;;;;;;;;5060978;28;20219;-76
2023/07/16 09:59:28;;;;;;;9.65;7.07;;;;;;;;;;5060231;28;20032;-74
2023/07/16 10:01:54;;;;;;;8.00;7.30;;;;;;;;;;5058449;28;20025;-75
2023/07/16 10:04:20;;;;;;;10.15;7.63;;;;;;;;;;5060063;28;20427;-76
2023/07/16 10:06:50;;;;;;;9.38;7.15;;;;;;;;;;5059448;28;20082;-77
2023/07/16 10:09:30;;;;;;;7.10;6.50;;;;;;;;;;5060189;28;20581;-76
2023/07/16 10:12:06;;;;;;;8.85;7.28;;;;;;;;;;5060538;28;20181;-76
2023/07/16 10:14:31;;;;;;;8.65;7.50;;;;;;;;;;5060465;28;20028;-76
2023/07/16 10:17:01;;;;;;;8.68;7.10;;;;;;;;;;5058975;28;20158;-76
2023/07/16 10:19:26;;;;;;;10.68;7.20;;;;;;;;;;5059212;28;20448;-76
2023/07/16 10:21:51;;;;;;;7.95;7.20;;;;;;;;;;5060826;28;20025;-75
2023/07/16 10:24:20;;;;;;;8.07;7.28;;;;;;;;;;5060696;28;20060;-75
2023/07/16 10:26:45;;;;;;;;;;;;;;;;;;5062009;28;20024;-74
2023/07/16 10:29:10;;;;;;;9.97;7.73;;;;;;;;;;5060268;28;19923;-75
2023/07/16 10:31:36;;;;;;;8.55;7.75;;;;;;;;;;5060433;28;20031;-74
2023/07/16 10:34:04;;;;;;;8.45;7.65;;;;;;;;;;5060707;28;20135;-75
2023/07/16 10:36:29;;;;;;;;;;;;;;;;;;5060809;28;20036;-75
2023/07/16 10:38:54;;;;;;;8.53;7.37;;;;;;;;;;5059849;28;20243;-76
2023/07/16 10:41:20;;;;;;;7.95;7.20;;;;;;;;;;5060966;28;20025;-76
2023/07/16 10:43:45;;;;;;;11.35;7.45;;;;;;;;;;5059368;28;20280;-76
2023/07/16 10:46:11;;;;;;;10.60;8.00;;;;;;;;;;5060050;28;20028;-76
2023/07/16 10:48:36;;;;;;;12.15;8.02;;;;;;;;;;5060351;28;20024;-75
2023/07/16 10:51:01;;;;;;;9.38;8.38;;;;;;;;;;5060946;28;20029;-76
2023/07/16 10:53:27;;;;;;;12.20;8.57;;;;;;;;;;5057904;28;20016;-76
2023/07/16 10:55:53;;;;;;;9.68;8.52;;;;;;;;;;5059775;28;20435;-76
2023/07/16 10:58:19;;;;;;;12.57;9.40;;;;;;;;;;5059194;28;20025;-75
2023/07/16 11:00:44;;;;;;;10.18;8.52;;;;;;;;;;5060333;28;20025;-76
2023/07/16 11:03:10;;;;;;;9.60;8.10;;;;;;;;;;5061675;28;20020;-77
2023/07/16 11:05:35;;;;;;;10.15;7.80;;;;;;;;;;5060942;28;20033;-76
2023/07/16 11:08:01;;;;;;;12.77;7.85;;;;;;;;;;5059502;28;20443;-76
2023/07/16 11:10:28;;;;;;;14.70;8.45;;;;;;;;;;5061547;28;20467;-76
2023/07/16 11:12:54;;;;;;;12.27;8.15;;;;;;;;;;5063828;28;20031;-77
2023/07/16 11:15:33;;;;;;;8.82;7.93;;;;;;;;;;5064372;28;20048;-78
2023/07/16 11:17:58;;;;;;;10.77;8.05;;;;;;;;;;5065558;28;20313;-76
2023/07/16 11:20:23;;;;;;;9.20;8.40;;;;;;;;;;5064635;28;20103;-75
2023/07/16 11:22:49;;;;;;;9.80;7.70;;;;;;;;;;5064230;28;20064;-75
2023/07/16 11:25:14;;;;;;;8.98;8.07;;;;;;;;;;5053717;28;20375;-78
2023/07/16 11:27:43;;;;;;;8.25;7.47;;;;;;;;;;5061899;28;20025;-76
2023/07/16 11:30:09;;;;;;;10.60;8.63;;;;;;;;;;5063824;28;20066;-76
2023/07/16 11:32:38;;;;;;;9.13;8.23;;;;;;;;;;5064966;28;20052;-76
2023/07/16 11:35:07;;;;;;;8.65;7.78;;;;;;;;;;5065173;28;20028;-76
2023/07/16 11:37:34;;;;;;;10.35;7.43;;;;;;;;;;5062977;28;20107;-75
2023/07/16 11:40:03;;;;;;;12.45;8.48;;;;;;;;;;5063625;28;20063;-76
2023/07/16 11:42:29;;;;;;;11.75;8.25;;;;;;;;;;5064839;28;20063;-78
2023/07/16 11:44:55;;;;;;;13.52;8.38;;;;;;;;;;5063929;28;20056;-78
2023/07/16 11:47:20;;;;;;;14.23;7.97;;;;;;;;;;5063104;28;20024;-80
2023/07/16 11:49:46;;;;;;;12.82;8.95;;;;;;;;;;5061344;28;20336;-76
2023/07/16 11:52:11;;;;;;;13.23;8.90;;;;;;;;;;5061347;28;20059;-76
2023/07/16 11:54:37;;;;;;;12.20;8.45;;;;;;;;;;5062418;28;20041;-77
2023/07/16 11:57:02;;;;;;;13.10;8.88;;;;;;;;;;5064753;28;20447;-78
2023/07/16 11:59:27;;;;;;;10.75;8.15;;;;;;;;;;5063771;28;20024;-76
2023/07/16 12:01:54;;;;;;;12.13;8.95;;;;;;;;;;5062902;28;20617;-76
2023/07/16 12:04:19;;;;;;;13.80;8.75;;;;;;;;;;5063195;28;20033;-78
2023/07/16 12:06:45;;;;;;;11.98;8.93;;;;;;;;;;5063799;28;20089;-76
2023/07/16 12:09:11;;;;;;;13.70;8.63;;;;;;;;;;5063355;28;20071;-77
2023/07/16 12:11:37;;;;;;;9.32;7.88;;;;;;;;;;5063668;28;20456;-79
2023/07/16 12:14:03;;;;;;;9.73;7.68;;;;;;;;;;5063377;28;20074;-80
2023/07/16 12:16:29;;;;;;;13.45;7.72;;;;;;;;;;5062505;28;20067;-78
2023/07/16 12:18:54;;;;;;;11.43;8.10;;;;;;;;;;5064028;28;20496;-79
2023/07/16 12:21:19;;;;;;;11.35;8.57;;;;;;;;;;5063674;28;20400;-78
2023/07/16 12:23:45;;;;;;;11.25;8.18;;;;;;;;;;5064217;28;20051;-77
2023/07/16 12:26:10;;;;;;;10.43;8.02;;;;;;;;;;5062138;28;20028;-78
2023/07/16 12:28:36;;;;;;;10.32;7.70;;;;;;;;;;5063785;28;20035;-77
2023/07/16 12:31:01;;;;;;;9.25;8.13;;;;;;;;;;5063741;28;20024;-77
2023/07/16 12:33:26;;;;;;;10.52;7.97;;;;;;;;;;5063034;28;20024;-75
2023/07/16 12:35:52;;;;;;;10.07;7.60;;;;;;;;;;5062667;28;20121;-76
2023/07/16 12:38:17;;;;;;;8.70;7.85;;;;;;;;;;5063114;28;20028;-76
2023/07/16 12:40:43;;;;;;;10.75;7.25;;;;;;;;;;5062897;28;20020;-76
2023/07/16 12:43:08;;;;;;;8.23;7.40;;;;;;;;;;5063691;28;20024;-79
2023/07/16 12:45:33;;;;;;;10.27;8.65;;;;;;;;;;5062793;28;20360;-77
2023/07/16 12:47:59;;;;;;;9.10;7.82;;;;;;;;;;5069658;28;20028;-78
2023/07/16 12:50:25;;;;;;;9.07;7.68;;;;;;;;;;5063139;28;20043;-78
2023/07/16 12:52:51;;;;;;;9.13;7.65;;;;;;;;;;5061467;28;20384;-75
2023/07/16 12:55:17;;;;;;;8.80;7.85;;;;;;;;;;5062421;28;20036;-76
2023/07/16 12:57:42;;;;;;;8.70;7.88;;;;;;;;;;5063461;28;20027;-78
2023/07/16 13:00:09;;;;;;;14.27;7.93;;;;;;;;;;5059498;28;20025;-78
2023/07/16 13:02:34;;;;;;;9.02;7.40;;;;;;;;;;5062885;28;20027;-75
2023/07/16 13:05:00;;;;;;;10.48;7.90;;;;;;;;;;5061170;28;20025;-76
2023/07/16 13:07:25;;;;;;;11.70;7.88;;;;;;;;;;5062033;28;20131;-76
2023/07/16 13:09:50;;;;;;;10.32;7.80;;;;;;;;;;5062117;28;20424;-76
2023/07/16 13:12:16;;;;;;;12.85;8.65;;;;;;;;;;5062946;28;20500;-79
2023/07/16 13:14:41;;;;;;;13.05;7.93;;;;;;;;;;5062153;28;20024;-78
2023/07/16 13:17:06;;;;;;;10.60;7.97;;;;;;;;;;5061934;28;20016;-76
2023/07/16 13:19:32;;;;;;;8.83;7.23;;;;;;;;;;5060760;28;20078;-76
2023/07/16 13:21:57;;;;;;;8.32;7.43;;;;;;;;;;5059302;28;20310;-76
2023/07/16 13:24:22;;;;;;;11.07;7.70;;;;;;;;;;5061423;28;20012;-75
2023/07/16 13:26:48;;;;;;;9.10;7.32;;;;;;;;;;5061777;28;20459;-77
2023/07/16 13:29:13;;;;;;;9.63;7.95;;;;;;;;;;5061292;28;20021;-77
2023/07/16 13:31:38;;;;;;;10.38;8.10;;;;;;;;;;5060290;28;20432;-75
2023/07/16 13:34:04;;;;;;;14.20;8.23;;;;;;;;;;5060918;28;20021;-76
2023/07/16 13:36:29;;;;;;;10.18;8.00;;;;;;;;;;5055253;28;20733;-77
2023/07/16 13:38:55;;;;;;;9.85;7.80;;;;;;;;;;5057284;28;20032;-75
2023/07/16 13:41:20;;;;;;;10.82;7.88;;;;;;;;;;5057019;28;20452;-77
2023/07/16 13:43:46;;;;;;;11.43;7.40;;;;;;;;;;5046399;28;20032;-78
2023/07/16 13:46:11;;;;;;;7.80;6.90;;;;;;;;;;5048313;28;20028;-78
2023/07/16 13:48:36;;;;;;;9.52;7.60;;;;;;;;;;5045234;28;20020;-75
2023/07/16 13:51:02;;;;;;;8.35;7.55;;;;;;;;;;5048501;28;20332;-77
2023/07/16 13:53:27;;;;;;;8.00;7.22;;;;;;;;;;5047987;28;20458;-77
2023/07/16 13:55:53;;;;;;;9.97;7.17;;;;;;;;;;5061361;28;20066;-78
2023/07/16 13:58:18;;;;;;;10.95;7.75;;;;;;;;;;5061184;28;20249;-77
2023/07/16 14:00:44;;;;;;;8.77;7.32;;;;;;;;;;5061671;28;20028;-78
2023/07/16 14:03:09;;;;;;;7.97;7.13;;;;;;;;;;5060382;28;20383;-77
2023/07/16 14:05:38;;;;;;;9.88;7.57;;;;;;;;;;5050374;28;20043;-75
2023/07/16 14:08:04;;;;;;;7.45;6.78;;;;;;;;;;5076172;28;20040;-77
2023/07/16 14:10:29;;;;;;;10.30;7.57;;;;;;;;;;5057660;28;20043;-75
2023/07/16 14:12:55;;;;;;;9.05;7.28;;;;;;;;;;5048051;28;20493;-78
2023/07/16 14:15:20;;;;;;;9.77;7.50;;;;;;;;;;5054877;28;20040;-76
2023/07/16 14:17:45;;;;;;;8.20;7.35;;;;;;;;;;5059361;28;20025;-74
2023/07/16 14:20:11;;;;;;;14.27;7.53;;;;;;;;;;5060640;28;20086;-77
2023/07/16 14:22:36;;;;;;;8.10;7.30;;;;;;;;;;5061908;28;20067;-76
2023/07/16 14:25:02;;;;;;;12.35;7.38;;;;;;;;;;5059859;28;20569;-75
2023/07/16 14:27:27;;;;;;;11.95;7.50;;;;;;;;;;5059966;28;20305;-76
2023/07/16 14:29:53;;;;;;;8.15;7.35;;;;;;;;;;5059815;28;20020;-75